Date,TemperatureHighF,TemperatureAvgF,TemperatureLowF,DewpointHighF,DewpointAvgF,DewpointLowF,HumidityHigh,HumidityAvg,HumidityLow,PressureMaxIn,PressureMinIn,WindSpeedMaxMPH,WindSpeedAvgMPH,GustSpeedMaxMPH,PrecipitationSumIn
2013-1-1,65.5,58.9,54.2,64.3,58.2,52.8,100,97,92,30.07,29.90,20,3,20,0.08
2013-1-2,54.2,48.7,43.2,52.8,46.4,42.4,98,92,84,30.20,30.00,17,5,17,0.09
2013-1-3,48.3,42.0,36.3,42.7,36.2,30.3,98,81,52,30.36,30.17,18,3,18,0.48
2013-1-4,54.2,44.0,35.3,41.8,34.1,28.5,84,69,41,30.43,30.31,13,2,13,0.00
2013-1-5,52.4,47.9,42.8,41.5,36.9,32.3,71,66,57,30.35,30.21,14,2,14,0.00
2013-1-6,50.9,47.5,42.9,48.4,44.1,38.4,97,89,63,30.28,30.15,17,3,17,0.17
2013-1-7,54.6,47.9,37.9,47.5,42.2,36.9,97,82,58,30.31,30.17,16,3,16,0.01
2013-1-8,60.5,54.6,47.1,59.4,52.0,41.9,99,91,75,30.20,30.09,25,8,25,0.00
2013-1-9,61.8,59.4,57.2,61.8,59.1,56.4,100,99,94,30.19,30.10,23,10,23,0.06
2013-1-10,61.9,59.6,58.0,61.9,59.6,57.9,100,100,100,30.18,29.92,22,6,22,0.42
2013-1-11,65.4,61.7,58.3,64.8,61.5,58.3,100,100,96,30.11,30.02,13,4,13,0.01
2013-1-12,64.8,62.4,60.7,64.8,62.4,60.7,100,100,100,30.07,29.93,11,1,11,0.00
2013-1-13,66.4,61.7,54.7,66.4,61.7,54.6,100,100,99,30.02,29.90,5,0,5,0.17
2013-1-14,55.1,49.4,41.6,54.9,49.3,41.3,100,100,99,30.09,30.01,12,2,21,0.43
2013-1-15,58.9,51.3,44.7,58.9,51.3,44.6,100,100,100,30.06,29.93,11,2,11,0.16
2013-1-16,50.7,43.6,38.1,50.7,42.5,36.8,100,96,90,30.10,29.93,20,6,20,0.15
2013-1-17,51.9,42.9,36.4,38.4,36.1,32.9,97,78,56,30.38,30.10,28,8,28,0.00
2013-1-18,54.5,44.1,35.5,44.5,39.1,33.9,98,83,60,30.50,30.37,12,4,16,0.00
2013-1-19,58.4,48.7,37.9,53.0,45.0,35.2,99,87,64,30.38,30.23,12,2,12,0.00
2013-1-20,59.5,50.8,41.7,54.5,48.9,41.7,100,94,73,30.26,30.12,9,2,9,0.01
2013-1-21,65.0,53.5,43.2,53.3,47.0,43.2,100,81,48,30.20,30.12,11,1,11,0.01
2013-1-22,54.7,47.2,40.2,44.5,38.5,30.6,95,73,49,30.36,30.18,11,2,11,0.00
2013-1-23,61.1,51.9,39.3,55.9,48.7,38.4,98,89,78,30.40,30.28,9,2,9,0.00
2013-1-24,66.8,58.2,49.9,59.4,55.4,49.4,99,91,76,30.34,30.21,14,2,14,0.01
2013-1-25,67.0,59.5,51.4,61.0,57.5,51.1,100,93,81,30.27,30.13,10,2,10,0.01
2013-1-26,67.9,61.3,53.4,64.2,59.9,53.4,100,95,86,30.25,30.17,6,2,8,0.01
2013-1-27,63.7,60.6,55.9,62.7,60.4,55.6,100,99,95,30.29,30.21,12,4,14,0.02
2013-1-28,67.8,63.9,60.7,65.1,63.2,60.6,100,97,90,30.25,30.11,16,6,16,0.01
2013-1-29,67.7,65.9,64.1,67.6,65.9,64.1,100,100,100,30.12,29.83,16,5,16,0.14
2013-1-30,68.3,58.6,45.1,68.3,53.4,33.6,100,85,52,30.15,29.68,32,9,32,0.80
2013-1-31,58.7,49.6,40.3,42.3,35.3,26.4,81,60,30,30.32,30.15,15,4,15,0.00
2013-2-1,58.4,50.7,43.8,47.4,42.0,36.3,94,72,53,30.39,30.30,13,3,13,0.00
2013-2-2,62.1,51.1,37.0,55.2,45.6,29.4,99,82,72,30.34,30.17,16,3,16,0.00
2013-2-3,62.8,55.5,46.9,54.8,48.2,40.9,97,77,61,30.26,30.11,10,2,10,0.00
2013-2-4,58.7,54.1,46.4,57.4,48.5,35.9,99,82,62,30.11,29.95,12,3,12,0.49
2013-2-5,66.2,59.8,55.2,62.2,58.5,55.1,100,96,86,30.02,29.92,16,3,16,0.40
2013-2-6,61.4,58.2,53.7,60.1,57.5,53.7,100,98,95,30.12,29.98,15,4,15,0.05
2013-2-7,73.2,63.7,56.3,64.3,60.3,55.9,100,90,69,29.98,29.77,27,5,27,1.69
2013-2-8,69.7,60.9,54.1,64.0,58.0,50.3,100,91,74,30.15,29.93,13,2,13,0.01
2013-2-9,61.9,55.6,47.9,60.7,52.7,44.8,96,90,85,30.22,30.06,19,6,19,0.00
2013-2-10,67.4,64.7,61.9,66.7,63.5,60.6,100,96,89,30.06,29.93,19,6,19,0.00
2013-2-11,68.0,60.7,56.9,68.0,59.9,55.6,100,97,86,30.11,29.96,20,4,20,0.41
2013-2-12,67.6,61.2,56.6,67.6,60.9,55.9,100,99,97,30.03,29.73,20,4,20,0.15
2013-2-13,66.0,51.5,42.9,65.1,49.1,41.0,99,91,83,30.07,29.79,22,5,22,0.22
2013-2-14,54.6,46.3,39.3,46.5,42.2,38.3,97,86,71,30.16,30.04,11,2,11,0.00
2013-2-15,60.4,51.2,38.9,47.9,43.9,38.6,99,78,51,30.17,30.05,15,3,15,0.01
2013-2-16,52.4,46.6,35.2,42.0,29.4,18.4,78,54,27,30.29,30.11,26,6,26,0.00
2013-2-17,53.6,45.1,32.0,44.3,33.2,24.3,75,63,51,30.38,30.24,16,4,16,0.00
2013-2-18,61.9,58.0,53.5,58.5,53.0,44.0,95,84,71,30.24,29.99,18,8,18,0.01
2013-2-19,66.0,58.8,46.2,59.3,44.8,29.6,99,65,27,30.23,29.96,21,5,21,1.12
2013-2-20,54.4,48.8,42.4,41.0,33.1,25.8,68,55,40,30.26,30.03,19,5,19,0.00
2013-2-21,62.2,56.6,47.6,61.2,52.5,38.6,100,87,61,30.04,29.81,20,6,20,0.00
2013-2-22,68.1,63.2,57.2,67.0,59.4,51.5,100,89,56,29.96,29.85,12,2,12,1.05
2013-2-23,59.6,57.0,54.9,58.0,55.5,51.4,100,95,86,29.94,29.80,17,3,17,1.31
2013-2-24,61.2,56.0,47.0,59.5,53.2,46.1,99,90,80,29.97,29.76,19,5,19,0.41
2013-2-25,65.9,60.9,56.0,65.9,60.6,56.0,100,99,93,29.78,29.48,36,8,36,4.56
2013-2-26,60.4,54.0,47.4,55.7,43.0,36.0,94,66,57,29.92,29.52,24,6,24,0.00
2013-2-27,61.2,55.5,47.4,55.0,48.0,42.3,91,77,53,30.03,29.91,15,3,15,0.00
2013-2-28,55.9,50.2,42.8,46.0,37.7,29.5,85,63,38,30.10,29.99,14,5,14,0.00
2013-3-1,59.5,49.0,40.1,40.5,34.9,29.7,85,61,35,30.15,30.00,11,4,18,0.00
2013-3-2,48.5,40.6,33.9,32.5,28.9,25.3,83,64,50,30.24,30.11,22,6,22,0.00
2013-3-3,53.9,39.4,31.1,26.8,24.9,21.8,78,59,32,30.28,30.14,16,6,16,0.00
2013-3-4,61.4,58.3,53.9,55.7,53.1,45.8,93,83,70,30.14,29.96,11,7,15,0.00
2013-3-5,75.1,61.6,50.6,63.8,54.2,41.3,95,79,45,30.16,29.93,17,4,17,0.00
2013-3-6,61.8,51.9,43.6,43.4,31.9,26.8,76,48,27,30.30,30.16,19,5,19,0.00
2013-3-7,54.9,46.9,37.1,44.6,37.6,31.3,90,71,57,30.35,30.22,7,2,17,0.00
2013-3-8,61.6,52.6,40.8,52.1,45.6,37.9,97,79,51,30.30,30.18,8,2,17,0.00
2013-3-9,62.7,58.0,49.7,60.6,55.1,47.6,99,90,76,30.19,29.98,11,6,17,0.00
2013-3-10,67.8,64.2,61.5,64.2,62.6,60.3,99,95,88,30.01,29.88,12,8,18,0.10
2013-3-11,64.7,54.9,47.6,64.3,51.2,40.5,100,88,63,30.00,29.81,15,6,24,0.08
2013-3-12,66.4,52.9,40.6,48.9,40.3,36.8,91,65,36,30.18,29.99,8,3,17,0.00
2013-3-13,65.9,55.1,44.2,41.8,32.8,24.2,76,47,23,30.36,30.18,11,5,18,0.00
2013-3-14,58.6,51.1,39.7,48.7,35.5,24.7,79,56,31,30.44,30.28,6,3,17,0.00
2013-3-15,66.4,58.6,46.9,56.4,51.6,45.3,96,78,64,30.31,30.13,9,4,17,0.00
2013-3-16,71.5,63.6,56.5,63.7,59.6,55.3,97,87,67,30.14,29.96,9,4,17,0.00
2013-3-17,69.6,64.4,59.9,65.6,62.3,59.0,98,93,86,29.99,29.86,11,4,17,0.00
2013-3-18,74.0,67.8,63.7,69.9,66.1,62.5,100,95,87,29.90,29.75,10,4,17,0.00
2013-3-19,68.9,63.0,56.3,67.5,58.4,50.8,100,85,70,30.02,29.86,8,4,17,0.01
2013-3-20,67.3,58.4,50.4,52.7,40.2,31.7,80,52,31,30.12,29.96,10,4,19,0.01
2013-3-21,60.1,53.5,44.5,49.2,38.7,31.3,70,58,43,30.06,29.88,10,5,17,0.00
2013-3-22,65.3,62.5,58.9,62.4,57.2,48.7,95,83,64,29.89,29.79,13,8,18,0.12
2013-3-23,68.8,65.3,62.7,67.2,64.3,60.3,100,97,92,29.85,29.57,9,6,17,0.02
2013-3-24,72.2,64.7,48.1,69.6,55.4,33.3,100,75,31,29.97,29.57,14,8,28,0.00
2013-3-25,59.3,47.8,37.5,35.0,28.8,21.4,78,51,25,30.23,29.97,13,8,22,0.00
2013-3-26,55.8,45.0,35.2,30.3,27.8,22.9,75,53,31,30.37,30.23,11,5,18,0.00
2013-3-27,54.9,46.0,33.9,44.3,34.9,28.7,82,66,50,30.44,30.28,8,4,17,0.00
2013-3-28,61.4,53.2,39.7,52.6,45.3,39.1,98,76,50,30.36,30.25,9,4,17,0.00
2013-3-29,66.0,56.9,43.0,59.6,53.5,42.6,99,89,71,30.32,30.19,5,2,17,0.00
2013-3-30,70.7,63.9,54.9,63.1,60.1,54.3,100,88,69,30.20,30.02,10,3,17,0.00
2013-3-31,73.0,65.5,61.4,68.8,63.8,60.5,100,95,86,30.06,29.88,12,3,20,0.34
2013-4-1,74.8,63.3,55.9,64.5,59.8,55.9,100,90,57,30.06,29.91,8,3,17,0.01
2013-4-2,71.1,64.0,53.7,64.5,59.5,53.6,100,86,67,30.11,29.95,8,4,17,0.01
2013-4-3,67.8,60.7,54.0,65.3,59.2,51.7,100,95,84,30.02,29.72,32,6,54,3.19
2013-4-4,63.2,55.4,50.9,57.3,52.9,48.8,99,91,80,29.99,29.88,10,5,18,0.00
2013-4-5,69.7,56.3,47.8,52.8,48.5,45.0,92,77,48,30.12,29.98,9,5,19,0.00
2013-4-6,68.8,60.0,47.8,59.0,53.2,45.3,92,79,62,30.16,30.06,7,3,17,0.00
2013-4-7,69.9,65.1,53.4,65.0,61.2,52.3,96,87,81,30.11,29.99,9,5,17,0.00
2013-4-8,73.2,69.2,65.8,69.4,67.2,64.2,98,94,87,30.04,29.94,11,6,17,0.00
2013-4-9,74.3,71.2,69.4,71.4,69.9,68.7,99,96,90,30.04,29.93,12,7,17,0.00
2013-4-10,76.4,72.7,70.3,73.1,70.9,69.4,98,94,87,29.99,29.84,11,7,17,0.00
2013-4-11,76.3,68.5,56.1,74.1,67.5,53.8,100,96,91,29.84,29.60,20,10,27,1.77
2013-4-12,75.3,61.3,49.1,53.6,49.4,46.4,97,69,38,29.97,29.81,9,5,17,0.00
2013-4-13,72.6,64.6,52.6,61.6,53.5,46.0,81,68,55,30.04,29.88,9,5,17,0.00
2013-4-14,69.6,62.7,56.9,65.2,60.4,51.8,100,93,66,29.90,29.74,30,5,30,1.95
2013-4-15,73.0,69.9,64.0,71.5,69.0,63.4,100,97,92,30.00,29.80,15,4,15,0.00
2013-4-16,75.7,72.4,70.7,73.6,71.6,70.6,100,97,92,30.10,29.97,16,5,16,0.00
2013-4-17,76.3,73.0,71.3,74.0,71.9,70.8,99,96,91,30.09,29.97,18,7,18,0.00
2013-4-18,78.5,74.6,71.6,74.6,72.6,70.0,98,94,86,29.98,29.82,21,7,21,0.00
2013-4-19,75.2,53.2,44.8,74.3,51.3,43.9,100,94,75,30.18,29.80,26,6,26,0.82
2013-4-20,67.2,54.5,40.8,51.4,44.3,37.5,99,72,40,30.26,30.10,17,2,17,0.01
2013-4-21,69.4,59.9,47.7,58.2,49.5,42.3,93,70,46,30.20,30.10,22,4,22,0.00
2013-4-22,72.2,63.7,52.4,67.8,60.1,49.3,95,88,77,30.12,30.02,17,5,17,0.00
2013-4-23,74.0,70.2,67.6,69.1,66.9,64.0,94,90,83,30.10,30.01,18,7,18,0.00
2013-4-24,71.5,68.8,57.4,69.9,67.6,56.6,100,96,91,30.15,30.01,22,5,22,0.44
2013-4-25,75.3,62.9,54.6,64.5,56.5,50.6,99,81,59,30.29,30.14,15,4,15,0.00
2013-4-26,71.2,65.1,55.3,67.1,57.6,47.7,93,77,63,30.27,30.20,18,4,18,0.00
2013-4-27,76.7,71.7,67.4,71.7,69.5,67.1,99,93,84,30.20,30.02,17,4,17,0.00
2013-4-28,76.0,70.6,63.0,73.2,68.7,61.3,99,94,82,30.06,29.92,16,3,16,0.34
2013-4-29,77.7,71.4,62.1,71.6,67.3,60.5,96,87,80,29.97,29.86,12,4,12,0.00
2013-4-30,75.2,70.4,66.3,72.3,69.1,65.8,100,96,87,29.93,29.85,19,4,19,0.80
2013-5-1,77.1,69.6,64.0,73.7,68.2,64.0,100,96,85,29.90,29.81,27,6,27,2.42
2013-5-2,72.9,68.0,63.5,68.6,66.4,63.5,100,95,85,29.93,29.83,25,6,25,1.29
2013-5-3,73.0,62.7,47.5,67.8,60.4,43.8,98,93,83,29.99,29.84,24,6,24,0.08
2013-5-4,70.0,57.5,43.0,54.5,43.7,35.7,94,64,33,30.00,29.86,23,5,23,0.00
2013-5-5,64.8,61.0,54.3,58.0,49.0,43.2,87,66,48,30.02,29.84,24,6,24,0.00
2013-5-6,72.7,62.8,50.3,58.0,51.4,45.5,89,68,49,30.02,29.90,18,3,18,0.00
2013-5-7,75.7,67.4,55.9,67.7,60.5,54.3,96,80,53,30.04,29.96,16,3,16,0.00
2013-5-8,78.3,70.3,61.0,68.7,64.9,60.8,100,84,63,30.11,30.00,16,3,16,0.00
2013-5-9,77.5,73.4,69.8,70.8,68.8,66.7,93,86,79,30.13,30.03,17,5,17,0.00
2013-5-10,72.7,69.4,63.4,71.0,67.7,63.1,100,94,86,30.09,29.87,25,7,25,1.39
2013-5-11,73.0,68.0,62.3,69.3,66.3,62.0,100,94,84,30.05,29.92,8,2,11,0.90
2013-5-12,78.7,70.4,61.9,68.6,61.1,56.3,100,74,53,30.12,30.01,14,3,14,0.00
2013-5-13,73.5,64.8,53.0,60.1,52.8,45.9,88,67,46,30.29,30.12,12,3,12,0.00
2013-5-14,77.5,69.8,57.0,65.9,61.1,55.5,98,75,50,30.27,30.15,13,4,13,0.00
2013-5-15,78.0,72.0,61.7,68.1,63.9,57.4,97,76,56,30.20,30.03,14,4,14,0.00
2013-5-16,79.5,75.2,71.5,73.6,70.3,65.7,92,85,75,30.04,29.93,20,6,20,0.00
2013-5-17,81.5,77.3,74.0,75.9,74.1,71.9,96,90,82,30.04,29.95,17,7,17,0.00
2013-5-18,82.3,78.5,75.7,76.2,74.7,73.2,95,88,81,30.07,29.99,16,6,16,0.00
2013-5-19,82.0,78.3,76.4,76.7,75.2,73.6,95,90,84,30.02,29.95,16,7,16,0.00
2013-5-20,83.5,79.4,76.1,78.4,75.8,73.9,95,89,81,30.01,29.93,17,6,17,0.00
2013-5-21,83.3,79.5,76.6,75.9,74.5,73.2,93,85,74,29.97,29.84,20,8,20,0.00
2013-5-22,78.5,74.6,65.9,74.9,71.1,65.0,100,89,78,30.03,29.88,22,3,22,0.26
2013-5-23,85.2,78.5,68.3,76.8,73.4,68.0,99,85,71,30.04,29.93,9,2,10,0.00
2013-5-24,88.6,79.8,72.7,76.2,71.1,63.4,97,76,55,30.13,30.01,11,2,11,0.00
2013-5-25,81.8,74.3,63.2,69.2,61.3,53.1,78,64,45,30.22,30.12,16,4,16,0.00
2013-5-26,83.0,75.8,65.2,73.5,66.6,63.0,94,74,53,30.18,30.10,13,3,13,0.00
2013-5-27,83.3,79.9,77.5,74.1,70.2,63.5,87,73,55,30.13,30.04,20,7,20,0.00
2013-5-28,82.8,79.0,76.0,75.0,70.3,66.0,88,75,62,30.07,29.99,18,6,18,0.00
2013-5-29,82.2,78.9,76.7,77.2,74.9,72.2,95,87,82,30.02,29.96,25,8,25,0.09
2013-5-30,81.5,78.7,76.3,76.6,75.1,73.7,95,89,84,30.02,29.95,24,9,24,0.17
2013-5-31,85.1,80.1,77.7,79.4,76.6,74.9,94,89,81,30.02,29.94,18,6,18,0.04
2013-6-1,85.8,81.4,78.2,79.3,77.1,74.5,93,87,79,29.98,29.91,15,7,15,0.00
2013-6-2,84.0,77.9,66.9,77.4,72.9,66.6,100,86,68,29.99,29.85,22,3,22,1.00
2013-6-3,87.8,80.7,71.8,78.3,75.2,70.6,98,84,70,29.91,29.81,12,3,12,0.00
2013-6-4,86.8,82.2,74.9,79.0,76.9,74.0,97,84,75,29.92,29.86,14,5,14,0.00
2013-6-5,86.0,82.6,80.2,78.8,76.7,74.6,89,83,75,29.92,29.82,18,6,18,0.04
2013-6-6,87.7,76.5,68.6,76.1,70.6,66.8,98,83,59,29.85,29.72,24,3,24,0.23
2013-6-7,87.0,76.9,69.9,76.3,72.0,69.3,99,86,62,29.88,29.76,11,2,11,0.04
2013-6-8,86.3,79.7,71.5,78.2,74.1,70.0,95,83,71,29.99,29.86,20,4,20,0.02
2013-6-9,82.7,78.9,73.3,77.6,75.0,71.2,97,88,79,29.98,29.90,26,6,26,0.43
2013-6-10,85.0,80.5,71.6,79.7,77.0,70.7,100,90,76,30.03,29.94,17,5,17,0.70
2013-6-11,89.4,83.8,78.5,80.1,78.0,75.1,95,83,66,30.08,29.99,11,3,11,0.00
2013-6-12,90.1,84.2,77.4,79.8,77.4,74.2,97,81,62,30.08,29.99,11,3,11,0.00
2013-6-13,91.4,84.6,78.0,80.4,76.8,70.7,94,78,52,30.04,29.87,14,3,14,0.00
2013-6-14,93.2,84.8,77.1,81.1,76.0,69.7,92,76,53,29.92,29.83,14,3,14,0.00
2013-6-15,89.5,81.7,71.6,80.5,74.5,66.9,86,79,71,30.00,29.91,14,3,14,0.00
2013-6-16,92.2,84.6,75.5,80.6,77.8,71.9,92,80,64,30.02,29.95,12,4,20,0.80
2013-6-17,90.0,84.4,77.8,79.5,77.5,74.9,92,80,69,30.01,29.91,19,3,19,0.00
2013-6-18,91.5,84.9,78.1,78.3,75.3,69.7,90,74,51,29.99,29.87,17,4,17,0.12
2013-6-19,87.0,80.2,72.7,77.7,74.1,70.7,94,82,68,30.02,29.92,15,2,15,0.00
2013-6-20,90.0,78.9,72.2,77.9,73.7,69.6,98,85,59,30.08,29.99,17,2,17,0.10
2013-6-21,87.7,78.7,71.2,79.1,74.2,70.1,97,87,73,30.11,30.03,13,2,13,0.01
2013-6-22,87.3,79.0,72.8,78.7,74.2,71.2,96,86,71,30.10,29.98,13,2,13,0.00
2013-6-23,88.2,81.0,72.4,78.4,75.4,71.5,98,84,68,30.07,30.00,11,3,11,0.00
2013-6-24,88.5,84.7,80.9,78.6,76.8,72.0,88,78,63,30.13,30.04,16,6,16,0.00
2013-6-25,88.8,85.3,82.3,78.2,76.5,73.0,85,75,63,30.10,30.00,13,5,13,0.00
2013-6-26,89.8,85.5,81.0,79.9,77.8,75.4,87,78,64,30.05,29.94,15,5,15,0.00
2013-6-27,93.3,86.6,80.4,81.3,79.1,76.2,91,79,62,30.00,29.89,12,3,12,0.00
2013-6-28,94.1,87.1,81.7,82.2,79.0,76.3,95,78,58,29.92,29.75,16,4,16,0.00
2013-6-29,90.9,82.9,75.9,80.0,75.4,70.5,90,79,65,29.80,29.67,17,4,17,0.01
2013-6-30,91.6,81.9,73.8,76.0,70.9,60.8,97,72,37,29.77,29.69,18,2,18,0.00
2013-7-1,88.4,79.7,70.5,70.0,67.6,63.5,86,68,45,29.90,29.77,15,3,15,0.00
2013-7-2,87.7,80.2,71.9,73.3,70.2,67.1,85,72,56,29.98,29.88,10,2,10,0.00
2013-7-3,86.9,75.9,70.5,76.4,72.1,69.7,100,89,66,30.02,29.90,15,2,15,1.19
2013-7-4,87.9,78.3,71.6,78.8,74.5,71.2,100,89,68,29.98,29.90,23,4,23,0.27
2013-7-5,78.8,76.0,72.7,77.6,73.8,70.2,100,93,80,30.05,29.90,20,5,22,1.72
2013-7-6,79.5,76.4,72.9,77.0,74.9,72.2,100,95,83,30.03,29.94,19,5,19,2.21
2013-7-7,84.8,78.7,74.9,79.3,76.3,73.8,100,93,82,30.11,29.97,14,4,14,0.26
2013-7-8,85.5,79.0,74.2,80.2,76.0,73.3,98,91,80,30.16,30.05,15,3,15,0.01
2013-7-9,86.7,81.4,72.9,78.7,76.3,72.5,99,85,72,30.18,30.07,11,3,11,0.00
2013-7-10,89.8,83.0,78.0,80.0,77.8,75.0,96,85,65,30.10,29.96,12,2,12,0.00
2013-7-11,85.0,77.1,69.8,79.1,75.2,69.5,100,94,81,30.01,29.85,19,3,19,2.10
2013-7-12,87.8,76.7,69.6,80.1,73.6,69.3,100,91,72,29.93,29.83,23,2,23,1.56
2013-7-13,86.5,78.4,70.8,79.0,74.6,70.5,100,89,71,29.93,29.83,20,2,20,0.00
2013-7-14,85.3,79.6,72.2,78.3,75.3,71.8,99,87,75,30.00,29.90,17,4,17,0.00
2013-7-15,85.2,80.2,74.4,79.4,76.0,72.8,98,87,78,30.09,29.99,19,5,19,0.34
2013-7-16,83.2,78.9,74.2,78.6,75.9,73.3,98,91,81,30.16,30.05,21,6,21,0.13
2013-7-17,87.7,80.1,73.4,79.3,75.9,72.2,99,87,73,30.20,30.09,15,3,15,0.00
2013-7-18,87.1,79.1,73.3,80.0,74.9,71.7,99,88,71,30.13,29.99,16,2,16,0.16
2013-7-19,86.6,79.7,72.7,78.8,75.4,71.9,99,87,75,30.06,29.94,16,4,16,0.00
2013-7-20,86.7,80.8,73.7,78.9,76.2,73.3,99,87,73,29.99,29.91,13,3,13,0.00
2013-7-21,85.3,80.2,73.6,79.1,76.0,72.2,97,87,78,30.06,29.97,24,3,24,0.68
2013-7-22,89.1,81.5,75.3,81.4,77.8,73.0,100,89,72,30.05,29.98,14,3,14,0.21
2013-7-23,91.8,84.8,78.8,80.4,78.0,74.9,97,81,60,30.04,29.90,15,3,15,0.00
2013-7-24,91.2,84.1,78.8,79.4,77.3,74.2,95,81,61,29.96,29.85,16,4,16,0.00
2013-7-25,90.3,81.3,75.0,77.6,75.5,73.5,98,84,63,30.01,29.88,12,3,12,0.27
2013-7-26,92.5,82.4,73.3,79.9,73.9,68.1,95,77,45,30.04,29.94,8,2,10,0.00
2013-7-27,85.3,81.1,74.5,79.2,77.0,71.9,95,88,70,29.96,29.85,15,2,15,0.13
2013-7-28,87.2,80.6,74.8,78.3,76.0,73.9,99,87,69,30.00,29.86,15,3,15,0.00
2013-7-29,91.5,82.7,75.0,80.5,77.6,74.4,98,85,68,30.09,29.97,8,2,8,0.00
2013-7-30,90.1,84.3,79.2,81.3,78.7,75.0,95,84,70,30.12,30.04,17,2,17,0.01
2013-7-31,92.5,85.0,80.7,81.6,78.9,76.3,93,83,65,30.09,29.95,13,3,13,0.00
2013-8-1,92.8,83.9,76.2,80.9,76.9,72.8,94,80,58,30.00,29.89,14,3,14,0.00
2013-8-2,90.2,83.1,73.2,80.5,76.7,72.0,96,82,68,30.01,29.91,10,2,10,0.00
2013-8-3,92.7,86.0,76.1,81.1,78.1,73.7,98,78,58,30.05,29.96,11,2,11,0.00
2013-8-4,93.8,86.9,80.0,82.0,79.0,74.9,93,78,56,30.08,29.95,17,4,17,0.00
2013-8-5,94.6,84.1,77.7,82.5,78.0,75.4,96,83,63,30.03,29.92,19,3,19,0.22
2013-8-6,92.4,86.3,80.0,81.3,79.1,75.3,92,80,64,29.99,29.88,18,4,18,0.00
2013-8-7,91.8,85.5,78.9,82.1,79.3,75.6,95,82,69,29.97,29.88,11,3,11,0.00
2013-8-8,90.3,85.5,79.2,83.4,79.7,75.7,98,83,73,29.96,29.88,15,3,15,0.14
2013-8-9,88.8,84.0,77.9,82.2,78.6,74.7,98,84,74,30.01,29.91,18,4,18,0.27
2013-8-10,90.8,85.9,82.1,79.9,77.8,74.6,86,77,66,30.07,29.99,14,5,14,0.03
2013-8-11,90.3,86.0,79.9,80.2,78.1,75.4,93,78,68,30.10,30.04,15,5,15,0.26
2013-8-12,89.1,84.0,78.0,82.4,78.7,74.3,97,85,72,30.09,30.00,13,3,13,0.02
2013-8-13,89.0,80.0,74.6,80.9,76.9,73.3,97,91,72,30.03,29.94,21,2,21,0.21
2013-8-14,80.9,76.7,73.1,77.3,74.9,72.0,99,94,86,29.98,29.89,15,3,15,0.66
2013-8-15,88.2,79.0,72.6,77.8,74.2,72.5,100,86,62,29.97,29.89,10,1,10,0.00
2013-8-16,84.8,79.5,72.8,78.4,75.0,71.7,97,86,72,29.96,29.90,16,3,16,0.02
2013-8-17,77.8,74.9,71.6,75.0,72.8,71.3,99,93,84,29.98,29.90,19,3,19,1.10
2013-8-18,84.6,76.0,71.0,78.3,74.0,70.8,100,94,81,29.99,29.90,14,2,14,2.45
2013-8-19,86.0,78.4,71.3,79.8,75.4,71.0,100,91,79,30.03,29.95,9,2,9,0.04
2013-8-20,86.3,80.4,73.8,80.3,76.9,73.3,100,90,73,30.05,29.97,15,3,15,0.00
2013-8-21,86.0,79.9,73.3,79.2,76.1,73.0,100,88,78,30.12,30.02,21,3,21,0.96
2013-8-22,87.4,81.2,73.2,80.2,76.4,72.6,99,86,76,30.08,29.95,14,3,14,0.00
2013-8-23,83.5,78.3,73.5,77.9,75.0,72.8,99,90,80,30.00,29.92,22,4,22,0.00
2013-8-24,80.1,76.7,73.1,76.1,74.2,72.3,100,92,81,30.09,29.96,22,5,22,1.01
2013-8-25,82.8,78.3,74.2,77.4,75.3,73.1,99,91,83,30.16,30.06,20,6,20,0.05
2013-8-26,83.7,79.1,73.9,75.7,73.7,71.7,96,84,70,30.18,30.07,18,5,18,0.00
2013-8-27,85.7,77.3,68.3,72.6,69.8,66.1,94,79,60,30.11,30.01,9,2,9,0.00
2013-8-28,86.5,77.8,68.7,72.8,69.1,66.3,95,76,56,30.07,29.99,8,2,8,0.00
2013-8-29,87.4,79.9,69.3,74.0,71.3,67.7,97,77,56,30.06,29.97,10,2,10,0.00
2013-8-30,89.1,81.9,75.3,76.5,73.5,67.3,95,77,54,30.03,29.90,12,2,12,0.00
2013-8-31,89.8,82.6,76.8,79.2,75.0,71.0,95,79,60,29.97,29.84,12,3,12,0.00
2013-9-1,90.2,84.2,78.0,80.4,77.8,74.2,95,82,60,29.94,29.84,12,3,12,0.00
2013-9-2,90.8,85.0,78.3,80.8,78.2,76.0,95,81,65,29.97,29.85,17,4,17,0.00
2013-9-3,90.3,82.7,76.4,81.3,78.3,75.2,100,87,68,29.97,29.86,19,3,19,0.03
2013-9-4,88.9,81.9,73.1,81.0,77.0,72.5,100,86,72,30.05,29.94,10,2,10,0.00
2013-9-5,89.0,82.0,74.6,79.7,76.8,74.3,99,85,67,30.10,30.01,13,2,13,0.00
2013-9-6,89.3,80.8,74.2,79.1,75.9,73.2,97,86,68,30.09,29.97,11,2,11,0.00
2013-9-7,89.7,81.3,73.6,76.4,73.7,71.6,95,79,60,30.04,29.95,11,2,11,0.00
2013-9-8,88.0,81.2,73.1,78.2,74.7,71.8,96,81,66,29.99,29.92,10,2,10,0.00
2013-9-9,89.3,81.6,73.6,77.1,74.3,72.1,97,80,60,30.03,29.94,12,2,12,0.00
2013-9-10,89.0,81.9,74.4,79.5,75.0,72.2,94,80,68,30.09,30.01,16,4,16,0.00
2013-9-11,89.0,82.1,73.4,78.9,74.4,71.5,94,78,64,30.10,30.00,17,5,17,0.00
2013-9-12,88.8,81.8,72.4,78.8,74.4,70.3,94,79,67,30.03,29.90,14,4,14,0.00
2013-9-13,90.3,82.3,73.2,76.9,74.7,72.5,98,79,59,29.93,29.80,11,3,11,0.00
2013-9-14,85.9,79.6,72.9,75.8,72.2,68.2,92,78,66,29.96,29.84,14,3,14,0.00
2013-9-15,87.8,80.4,70.3,79.2,72.6,63.5,83,77,69,30.04,29.95,14,3,14,0.00
2013-9-16,88.7,81.2,72.4,79.4,75.7,71.6,98,84,70,30.07,29.98,13,3,13,0.00
2013-9-17,89.0,81.5,73.3,79.6,75.7,71.4,97,83,72,30.06,29.94,14,3,14,0.00
2013-9-18,85.9,80.2,75.5,79.0,75.6,72.7,95,86,75,30.04,29.97,23,6,23,0.13
2013-9-19,84.1,79.9,74.8,79.1,76.2,73.0,96,89,80,30.04,29.95,22,6,22,0.08
2013-9-20,87.3,83.7,80.7,80.4,78.4,76.8,92,84,77,29.98,29.81,16,6,16,0.02
2013-9-21,82.9,77.5,71.4,79.2,75.8,70.5,100,95,84,29.82,29.69,17,4,17,0.98
2013-9-22,80.7,72.8,67.3,71.7,68.5,64.7,100,87,71,29.79,29.71,12,3,12,0.42
2013-9-23,84.3,76.7,67.0,80.3,72.5,61.6,96,87,77,29.84,29.78,13,4,13,0.00
2013-9-24,83.8,79.3,75.3,80.0,77.7,75.3,100,95,85,29.85,29.74,17,4,17,0.63
2013-9-25,87.2,78.5,72.0,77.6,74.0,69.5,100,87,64,29.82,29.74,11,2,11,0.00
2013-9-26,87.7,77.4,67.4,70.4,68.2,65.1,94,75,53,29.92,29.80,12,2,12,0.00
2013-9-27,82.2,76.9,70.9,73.4,70.8,68.2,96,82,65,30.01,29.91,18,4,18,0.00
2013-9-28,83.4,76.3,68.3,71.6,68.6,63.9,92,78,62,30.06,29.97,11,4,13,0.00
2013-9-29,82.2,74.1,66.7,72.1,68.6,64.9,95,83,70,30.03,29.93,14,3,14,0.01
2013-9-30,79.7,76.5,70.1,74.4,71.4,67.2,97,85,75,29.96,29.90,11,4,15,0.04
2013-10-1,82.2,77.7,69.9,77.5,73.6,69.0,98,87,76,30.02,29.94,17,4,17,0.00
2013-10-2,81.0,77.5,72.2,76.8,74.5,71.0,97,91,85,30.04,29.95,18,5,18,0.05
2013-10-3,84.2,79.6,73.2,79.4,76.2,72.4,98,90,83,30.02,29.94,25,7,25,0.00
2013-10-4,84.8,80.6,77.3,79.8,76.5,73.7,94,87,79,30.02,29.95,21,6,21,0.00
2013-10-5,85.7,81.1,75.3,79.6,76.8,72.5,94,87,79,30.00,29.89,19,6,19,0.37
2013-10-6,82.0,76.1,67.1,77.4,73.1,60.7,98,91,80,29.90,29.76,20,6,20,0.72
2013-10-7,75.0,66.2,58.8,60.7,55.6,49.5,86,70,46,30.02,29.89,19,5,19,0.00
2013-10-8,77.9,65.2,54.3,62.9,57.1,52.6,95,77,51,30.02,29.94,12,2,12,0.00
2013-10-9,78.1,69.8,60.1,73.8,66.6,57.7,95,90,86,30.07,29.98,13,4,13,0.00
2013-10-10,78.2,73.0,67.1,73.5,70.4,66.5,98,92,83,30.09,29.98,13,3,13,0.00
2013-10-11,81.3,74.8,66.9,75.1,71.5,66.6,100,90,78,30.04,29.95,14,3,14,0.00
2013-10-12,82.3,79.0,76.4,74.3,72.6,70.8,89,81,71,30.08,29.98,10,4,10,0.00
2013-10-13,83.4,76.2,69.6,76.0,72.8,69.0,98,90,72,30.15,30.03,10,1,10,0.01
2013-10-14,81.0,74.7,66.3,71.5,68.3,65.2,97,81,62,30.09,30.00,11,2,11,0.01
2013-10-15,81.2,74.4,67.2,73.9,70.0,66.0,97,87,70,30.04,29.93,13,4,13,0.00
2013-10-16,81.5,78.1,74.4,74.8,71.0,68.6,93,79,72,30.00,29.90,14,4,14,0.01
2013-10-17,79.8,75.2,65.7,75.5,71.1,62.4,97,87,76,29.96,29.88,18,4,18,0.05
2013-10-18,74.5,67.3,62.8,63.0,61.2,58.2,94,82,58,30.02,29.90,12,3,12,0.00
2013-10-19,68.8,63.3,59.4,66.0,61.2,58.6,99,93,80,30.00,29.89,17,2,17,0.68
2013-10-20,72.5,62.7,53.6,62.3,58.0,52.8,98,86,65,30.05,29.96,14,2,14,0.01
2013-10-21,72.9,65.9,59.4,64.5,60.3,56.1,90,82,71,30.05,29.95,14,2,14,0.00
2013-10-22,78.5,68.9,61.6,65.7,61.0,58.1,93,77,52,29.97,29.87,13,3,13,0.00
2013-10-23,74.2,63.9,56.5,58.0,51.1,43.8,90,66,35,30.12,29.97,16,4,16,0.00
2013-10-24,72.0,61.8,49.9,61.3,54.5,45.3,96,78,62,30.22,30.10,9,2,9,0.00
2013-10-25,67.5,58.4,50.0,58.7,47.2,41.6,98,68,41,30.37,30.20,16,3,16,0.00
2013-10-26,68.4,55.9,43.7,53.9,46.3,37.6,93,71,47,30.30,30.14,10,2,10,0.00
2013-10-27,70.8,61.7,49.2,65.0,57.7,47.0,98,87,75,30.16,30.05,10,2,10,0.00
2013-10-28,74.3,67.8,57.8,70.4,65.6,57.2,99,93,84,30.18,30.07,11,2,11,0.01
2013-10-29,73.9,68.4,60.1,69.7,66.0,59.8,99,92,84,30.24,30.14,15,4,15,0.01
2013-10-30,76.3,72.5,69.1,72.4,70.1,67.8,96,92,83,30.18,30.04,13,4,13,0.00
2013-10-31,77.5,74.0,69.6,73.1,71.7,69.0,99,93,85,30.05,29.81,17,6,17,0.65
2013-11-1,75.5,68.3,59.3,71.3,63.8,53.6,100,86,57,29.92,29.77,12,3,17,0.01
2013-11-2,74.5,63.5,54.7,57.4,51.2,44.6,89,66,43,30.14,29.90,19,4,19,0.00
2013-11-3,63.9,55.4,45.7,51.6,47.2,42.8,90,75,55,30.22,30.11,14,3,14,0.00
2013-11-4,68.5,61.5,50.4,62.4,54.9,45.6,84,79,72,30.24,30.14,23,5,23,0.00
2013-11-5,69.5,66.3,63.0,64.1,61.2,57.4,92,84,78,30.22,30.11,25,8,25,0.00
2013-11-6,72.9,67.3,58.9,70.1,64.9,56.6,99,92,83,30.12,30.03,19,5,19,0.01
2013-11-7,69.8,58.6,47.3,69.4,53.3,41.1,99,83,57,30.27,30.03,23,6,23,0.02
2013-11-8,65.1,52.8,43.5,42.0,38.9,35.4,80,62,35,30.32,30.16,12,3,19,0.00
2013-11-9,68.7,58.7,45.5,62.9,53.3,39.6,93,83,70,30.22,30.14,11,2,11,0.00
2013-11-10,74.3,62.8,56.2,62.4,56.4,50.3,93,80,57,30.24,30.15,8,2,12,0.00
2013-11-11,70.3,60.7,51.9,61.8,53.3,46.8,98,78,46,30.23,30.12,11,2,11,0.00
2013-11-12,71.3,56.7,41.8,55.5,48.1,29.3,96,74,54,30.44,30.16,24,5,24,0.00
2013-11-13,55.1,42.8,33.5,31.0,26.7,21.7,69,54,34,30.51,30.39,19,4,19,0.00
2013-11-14,61.1,51.7,36.9,54.3,42.5,26.9,84,71,58,30.40,30.11,19,5,19,0.00
2013-11-15,67.1,62.2,59.2,66.8,60.5,53.1,100,94,80,30.12,29.97,19,5,19,0.33
2013-11-16,66.3,64.2,62.0,66.3,64.0,61.9,100,99,96,30.06,29.97,17,6,17,0.03
2013-11-17,70.3,67.5,64.0,70.3,67.4,64.0,100,99,96,29.98,29.89,11,2,11,0.03
2013-11-18,71.8,65.3,56.6,71.8,60.6,43.0,100,86,58,30.08,29.93,28,2,28,0.62
2013-11-19,62.9,54.3,45.4,43.9,41.2,37.6,78,62,40,30.14,30.01,15,3,15,0.00
2013-11-20,62.9,55.0,40.9,60.9,50.1,36.1,95,84,68,30.11,30.03,16,4,16,0.00
2013-11-21,66.5,62.7,59.2,64.3,60.8,57.4,96,94,90,30.20,30.10,19,7,19,0.00
2013-11-22,71.6,66.8,64.3,69.0,65.4,62.8,100,95,90,30.20,30.12,13,4,17,0.00
2013-11-23,65.6,59.4,48.8,64.2,56.8,41.6,100,91,76,30.29,30.14,21,4,21,0.00
2013-11-24,54.2,45.9,39.6,41.5,30.8,26.0,76,57,36,30.36,30.25,18,5,18,0.00
2013-11-25,63.4,51.1,39.1,63.3,46.5,26.9,100,85,59,30.28,29.82,24,7,25,0.46
2013-11-26,63.3,49.0,41.9,63.0,48.0,40.8,100,96,90,29.99,29.73,21,8,25,0.99
2013-11-27,48.3,40.3,31.6,40.9,31.8,26.6,96,73,46,30.40,29.99,26,6,26,0.01
2013-11-28,47.9,36.2,27.4,35.2,29.2,24.1,95,77,48,30.49,30.37,9,2,9,0.00
2013-11-29,52.8,40.6,30.1,39.7,33.2,26.3,95,77,44,30.53,30.41,12,2,12,0.00
2013-11-30,59.7,48.2,35.1,53.4,42.1,30.0,99,80,55,30.43,30.24,8,1,8,0.00
2013-12-1,59.5,51.8,42.6,54.3,49.8,42.3,100,93,78,30.26,29.99,8,2,8,0.01
2013-12-2,60.9,56.7,50.5,58.8,54.4,50.0,100,92,75,30.00,29.77,8,2,8,0.00
2013-12-3,66.0,60.9,58.1,63.3,60.3,57.9,100,98,90,29.84,29.73,12,3,12,0.04
2013-12-4,66.5,62.9,59.9,66.0,62.8,59.9,100,100,97,29.95,29.83,8,1,8,0.04
2013-12-5,66.7,63.8,61.2,66.6,63.8,61.1,100,100,100,30.02,29.93,10,2,10,0.03
2013-12-6,68.1,61.7,46.7,68.1,61.7,46.6,100,100,100,30.18,29.94,16,4,21,0.57
2013-12-7,46.7,41.4,39.6,46.7,40.9,38.9,100,98,95,30.29,30.17,17,4,17,0.08
2013-12-8,58.1,47.7,40.9,57.9,47.7,40.9,100,100,100,30.23,30.02,9,1,9,0.00
2013-12-9,64.5,58.1,53.5,60.2,56.8,53.5,100,96,85,30.12,30.02,12,2,12,0.07
2013-12-10,59.2,44.3,37.3,58.3,41.2,34.8,100,90,69,30.35,30.03,25,5,25,0.10
2013-12-11,54.7,47.0,35.7,47.5,39.6,33.1,91,76,55,30.39,30.30,11,2,11,0.00
2013-12-12,56.0,46.7,36.7,40.5,33.1,28.2,77,60,38,30.49,30.36,16,3,16,0.00
2013-12-13,55.9,46.9,33.7,53.1,41.5,25.9,93,81,69,30.36,29.97,16,5,16,0.00
2013-12-14,67.8,60.3,49.4,65.1,58.7,45.9,99,94,86,30.02,29.81,23,4,23,0.07
2013-12-15,49.7,43.5,34.7,46.2,37.7,33.1,94,80,66,30.31,30.02,25,5,25,0.00
2013-12-16,54.2,41.5,30.4,43.2,37.3,29.7,98,86,57,30.35,30.25,7,1,7,0.00
2013-12-17,58.7,47.9,37.0,49.2,41.8,35.4,99,81,57,30.34,30.22,10,2,10,0.01
2013-12-18,57.6,48.0,40.1,50.8,43.8,37.1,99,86,68,30.37,30.22,12,1,12,0.00
2013-12-19,61.0,53.9,43.3,58.7,52.4,42.7,99,95,87,30.22,30.04,15,4,15,0.01
2013-12-20,66.3,62.5,58.2,64.6,61.7,57.3,100,97,93,30.10,29.96,16,5,16,0.00
2013-12-21,65.7,63.0,60.7,65.7,63.0,60.7,100,100,100,29.95,29.79,12,4,12,0.00
2013-12-22,68.8,57.5,53.4,68.5,57.5,53.3,100,100,100,30.12,29.82,30,2,30,5.69
2013-12-23,54.7,45.2,34.8,54.7,42.8,32.3,100,91,81,30.44,30.10,18,6,21,0.10
2013-12-24,51.8,39.2,30.9,34.3,31.2,28.4,93,75,49,30.50,30.37,18,3,18,0.00
2013-12-25,46.4,38.4,28.9,34.1,30.3,25.7,88,73,54,30.41,30.29,7,2,9,0.00
2013-12-26,53.4,44.0,35.3,40.0,34.9,30.3,83,71,49,30.37,30.26,13,2,13,0.00
2013-12-27,59.3,50.3,41.2,41.0,37.9,35.8,83,64,45,30.38,30.25,13,3,13,0.00
2013-12-28,52.2,47.2,43.9,48.4,46.2,37.4,100,97,57,30.26,29.93,15,3,15,2.27
2013-12-29,56.2,49.6,45.2,50.2,48.2,44.8,100,95,77,30.12,29.93,11,2,11,0.04
2013-12-30,54.9,48.8,41.7,50.8,46.9,41.6,100,94,82,30.31,30.10,10,1,10,0.01
2013-12-31,49.3,43.9,41.6,47.3,41.8,39.4,97,92,87,30.41,30.28,10,2,12,0.08
2014-1-1,57.3,51.1,42.0,57.0,50.3,41.2,99,97,93,30.33,30.01,12,3,14,0.06
2014-1-2,58.3,51.5,35.2,57.7,45.7,26.8,100,81,58,30.33,29.91,31,7,31,0.43